createdAt,value
2023-05-10T00:00:33.640Z,971.88
2023-05-10T00:01:33.633Z,971.96
2023-05-10T00:02:33.697Z,971.92
2023-05-10T00:03:33.655Z,971.91
2023-05-10T00:04:33.589Z,971.89
2023-05-10T00:05:33.577Z,971.91
2023-05-10T00:06:33.579Z,971.88
2023-05-10T00:07:33.533Z,971.89
2023-05-10T00:08:33.557Z,971.85
2023-05-10T00:09:33.512Z,971.79
2023-05-10T00:10:33.511Z,971.81
2023-05-10T00:11:33.487Z,971.89
2023-05-10T00:12:33.489Z,971.86
2023-05-10T00:13:33.480Z,971.86
2023-05-10T00:14:33.461Z,971.76
2023-05-10T00:15:33.445Z,971.79
2023-05-10T00:16:33.467Z,971.81
2023-05-10T00:17:33.427Z,971.80
2023-05-10T00:18:33.425Z,971.81
2023-05-10T00:19:33.466Z,971.80
2023-05-10T00:20:33.376Z,971.81
2023-05-10T00:21:33.371Z,971.83
2023-05-10T00:22:33.372Z,971.75
2023-05-10T00:23:33.340Z,971.83
2023-05-10T00:24:33.335Z,971.81
2023-05-10T00:25:33.309Z,971.79
2023-05-10T00:26:33.312Z,971.79
2023-05-10T00:27:33.304Z,971.82
2023-05-10T00:28:33.273Z,971.82
2023-05-10T00:29:33.261Z,971.76
2023-05-10T00:30:33.254Z,971.73
2023-05-10T00:31:33.253Z,971.68
2023-05-10T00:32:33.270Z,971.74
2023-05-10T00:33:33.204Z,971.77
2023-05-10T00:34:33.193Z,971.73
2023-05-10T00:35:33.185Z,971.79
2023-05-10T00:36:33.190Z,971.78
2023-05-10T00:37:33.153Z,971.75
2023-05-10T00:38:33.143Z,971.78
2023-05-10T00:39:33.126Z,971.82
2023-05-10T00:40:33.123Z,971.80
2023-05-10T00:41:33.120Z,971.81
2023-05-10T00:42:33.107Z,971.79
2023-05-10T00:43:33.084Z,971.83
2023-05-10T00:44:33.077Z,971.84
2023-05-10T00:45:33.079Z,971.78
2023-05-10T00:46:33.081Z,971.80
2023-05-10T00:47:33.133Z,971.80
2023-05-10T00:48:33.034Z,971.85
2023-05-10T00:49:33.015Z,971.84
2023-05-10T00:50:33.008Z,971.79
2023-05-10T00:51:33.001Z,971.84
2023-05-10T00:52:32.981Z,971.79
2023-05-10T00:53:32.959Z,971.83
2023-05-10T00:54:32.966Z,971.84
2023-05-10T00:55:32.944Z,971.79
2023-05-10T00:56:32.929Z,971.77
2023-05-10T00:57:32.908Z,971.77
2023-05-10T00:58:32.902Z,971.79
2023-05-10T00:59:32.887Z,971.75
2023-05-10T01:00:32.871Z,971.84
2023-05-10T01:01:32.898Z,971.81
2023-05-10T01:02:32.950Z,971.74
2023-05-10T01:03:32.938Z,971.76
2023-05-10T01:04:32.868Z,971.79
2023-05-10T01:05:32.824Z,971.72
2023-05-10T01:06:32.783Z,971.75
2023-05-10T01:07:32.773Z,971.83
2023-05-10T01:08:32.785Z,971.79
2023-05-10T01:09:32.759Z,971.80
2023-05-10T01:10:32.744Z,971.81
2023-05-10T01:11:32.723Z,971.83
2023-05-10T01:12:32.779Z,971.84
2023-05-10T01:13:32.753Z,971.81
2023-05-10T01:14:32.693Z,971.81
2023-05-10T01:15:32.685Z,971.82
2023-05-10T01:16:32.739Z,971.88
2023-05-10T01:17:32.677Z,971.81
2023-05-10T01:18:32.651Z,971.87
2023-05-10T01:19:32.616Z,971.83
2023-05-10T01:20:32.610Z,971.86
2023-05-10T01:21:32.619Z,971.86
2023-05-10T01:22:32.598Z,971.81
2023-05-10T01:23:32.597Z,971.83
2023-05-10T01:24:32.570Z,971.82
2023-05-10T01:25:32.558Z,971.84
2023-05-10T01:26:32.571Z,971.83
2023-05-10T01:27:32.549Z,971.79
2023-05-10T01:28:32.613Z,971.86
2023-05-10T01:29:32.511Z,971.86
2023-05-10T01:30:32.500Z,971.86
2023-05-10T01:31:32.535Z,971.83
2023-05-10T01:32:32.476Z,971.79
2023-05-10T01:33:32.458Z,971.83
2023-05-10T01:34:32.438Z,971.82
2023-05-10T01:35:32.433Z,971.83
2023-05-10T01:36:32.409Z,971.81
2023-05-10T01:37:32.424Z,971.78
2023-05-10T01:38:32.384Z,971.82
2023-05-10T01:39:32.381Z,971.75
2023-05-10T01:40:32.366Z,971.80
2023-05-10T01:41:32.372Z,971.77
2023-05-10T01:42:32.329Z,971.76
2023-05-10T01:43:32.333Z,971.85
2023-05-10T01:44:32.346Z,971.81
2023-05-10T01:45:32.300Z,971.81
2023-05-10T01:46:32.316Z,971.85
2023-05-10T01:47:32.301Z,971.84
2023-05-10T01:48:32.259Z,971.79
2023-05-10T01:49:32.249Z,971.80
2023-05-10T01:50:32.229Z,971.81
2023-05-10T01:51:32.240Z,971.80
2023-05-10T01:52:32.212Z,971.82
2023-05-10T01:53:32.201Z,971.83
2023-05-10T01:54:32.188Z,971.81
2023-05-10T01:55:32.183Z,971.83
2023-05-10T01:56:32.160Z,971.82
2023-05-10T01:57:32.139Z,971.83
2023-05-10T01:58:32.110Z,971.85
2023-05-10T01:59:32.121Z,971.81
2023-05-10T02:00:32.143Z,971.92
2023-05-10T02:01:32.102Z,971.89
2023-05-10T02:02:32.090Z,971.92
2023-05-10T02:03:32.141Z,971.89
2023-05-10T02:04:32.049Z,971.86
2023-05-10T02:05:32.056Z,971.90
2023-05-10T02:06:32.028Z,971.92
2023-05-10T02:07:32.014Z,971.87
2023-05-10T02:08:32.008Z,971.83
2023-05-10T02:09:32.004Z,971.88
2023-05-10T02:10:31.990Z,971.92
2023-05-10T02:11:31.971Z,971.90
2023-05-10T02:12:31.944Z,971.81
2023-05-10T02:13:31.995Z,971.85
2023-05-10T02:14:31.930Z,971.83
2023-05-10T02:15:31.925Z,971.83
2023-05-10T02:16:32.128Z,971.86
2023-05-10T02:17:31.927Z,971.80
2023-05-10T02:18:31.874Z,971.81
2023-05-10T02:19:31.865Z,971.83
2023-05-10T02:20:31.843Z,971.81
2023-05-10T02:21:31.835Z,971.84
2023-05-10T02:22:31.818Z,971.84
2023-05-10T02:23:31.824Z,971.80
2023-05-10T02:24:31.804Z,971.80
2023-05-10T02:25:31.796Z,971.81
2023-05-10T02:26:31.768Z,971.71
2023-05-10T02:27:31.761Z,971.75
2023-05-10T02:28:31.757Z,971.77
2023-05-10T02:29:31.740Z,971.80
2023-05-10T02:30:31.726Z,971.77
2023-05-10T02:31:31.755Z,971.84
2023-05-10T02:32:31.715Z,971.85
2023-05-10T02:33:31.704Z,971.81
2023-05-10T02:34:31.661Z,971.85
2023-05-10T02:35:31.659Z,971.94
2023-05-10T02:36:31.652Z,971.90
2023-05-10T02:37:31.640Z,971.86
2023-05-10T02:38:31.655Z,971.86
2023-05-10T02:39:31.605Z,971.91
2023-05-10T02:40:31.590Z,971.97
2023-05-10T02:41:31.583Z,971.87
2023-05-10T02:42:31.575Z,971.86
2023-05-10T02:43:31.563Z,971.83
2023-05-10T02:44:31.553Z,971.83
2023-05-10T02:45:31.547Z,971.91
2023-05-10T02:46:31.658Z,971.92
2023-05-10T02:47:31.540Z,971.81
2023-05-10T02:48:31.498Z,971.80
2023-05-10T02:49:31.489Z,971.81
2023-05-10T02:50:31.477Z,971.81
2023-05-10T02:51:31.472Z,971.83
2023-05-10T02:52:31.455Z,971.84
2023-05-10T02:53:31.432Z,971.84
2023-05-10T02:54:31.420Z,971.85
2023-05-10T02:55:31.411Z,971.85
2023-05-10T02:56:31.405Z,971.84
2023-05-10T02:57:31.402Z,971.89
2023-05-10T02:58:31.355Z,971.85
2023-05-10T02:59:31.347Z,971.82
2023-05-10T03:00:31.352Z,971.82
2023-05-10T03:01:31.350Z,971.85
2023-05-10T03:02:31.339Z,971.88
2023-05-10T03:03:31.307Z,971.83
2023-05-10T03:04:31.298Z,971.86
2023-05-10T03:05:31.294Z,971.78
2023-05-10T03:06:31.277Z,971.82
2023-05-10T03:07:31.293Z,971.74
2023-05-10T03:08:31.262Z,971.74
2023-05-10T03:09:31.234Z,971.79
2023-05-10T03:10:31.229Z,971.82
2023-05-10T03:11:31.208Z,971.80
2023-05-10T03:12:31.200Z,971.84
2023-05-10T03:13:31.273Z,971.84
2023-05-10T03:14:31.156Z,971.82
2023-05-10T03:15:31.166Z,971.84
2023-05-10T03:16:31.227Z,971.86
2023-05-10T03:17:31.211Z,971.83
2023-05-10T03:18:31.110Z,971.82
2023-05-10T03:19:31.124Z,971.85
2023-05-10T03:20:31.114Z,971.78
2023-05-10T03:21:31.091Z,971.83
2023-05-10T03:22:31.065Z,971.89
2023-05-10T03:23:31.055Z,971.87
2023-05-10T03:24:31.039Z,971.89
2023-05-10T03:25:31.093Z,971.92
2023-05-10T03:26:31.017Z,971.90
2023-05-10T03:27:31.012Z,971.96
2023-05-10T03:28:30.987Z,971.96
2023-05-10T03:29:30.979Z,971.88
2023-05-10T03:30:30.958Z,971.91
2023-05-10T03:31:30.996Z,971.97
2023-05-10T03:32:30.950Z,971.93
2023-05-10T03:33:30.935Z,971.98
2023-05-10T03:34:30.929Z,971.95
2023-05-10T03:35:30.903Z,971.95
2023-05-10T03:36:30.891Z,972.02
2023-05-10T03:37:30.875Z,972.03
2023-05-10T03:38:30.988Z,972.08
2023-05-10T03:39:30.859Z,972.06
2023-05-10T03:40:30.839Z,972.06
2023-05-10T03:41:30.826Z,972.04
2023-05-10T03:42:30.810Z,972.00
2023-05-10T03:43:30.834Z,972.09
2023-05-10T03:44:30.793Z,972.06
2023-05-10T03:45:30.778Z,972.00
2023-05-10T03:46:30.857Z,972.11
2023-05-10T03:47:30.918Z,972.12
2023-05-10T03:48:30.753Z,972.07
2023-05-10T03:49:30.718Z,972.12
2023-05-10T04:03:02.682Z,972.27
2023-05-10T04:04:02.641Z,972.32
2023-05-10T04:05:02.547Z,972.32
2023-05-10T04:06:02.619Z,972.24
2023-05-10T04:07:02.556Z,972.29
2023-05-10T04:08:02.512Z,972.26
2023-05-10T04:09:02.500Z,972.30
2023-05-10T04:10:02.484Z,972.37
2023-05-10T04:11:02.465Z,972.30
2023-05-10T04:12:02.466Z,972.32
2023-05-10T04:13:02.469Z,972.38
2023-05-10T04:14:02.435Z,972.41
2023-05-10T04:15:02.422Z,972.37
2023-05-10T04:16:02.403Z,972.38
2023-05-10T04:17:02.480Z,972.42
2023-05-10T04:18:02.418Z,972.43
2023-05-10T04:19:02.360Z,972.47
2023-05-10T04:20:02.346Z,972.43
2023-05-10T04:21:02.345Z,972.41
2023-05-10T04:22:02.324Z,972.45
2023-05-10T04:23:02.309Z,972.45
2023-05-10T04:24:02.287Z,972.52
2023-05-10T04:25:02.293Z,972.46
2023-05-10T04:26:02.301Z,972.46
2023-05-10T04:27:02.274Z,972.48
2023-05-10T04:28:02.252Z,972.51
2023-05-10T04:29:02.242Z,972.42
2023-05-10T04:30:02.242Z,972.44
2023-05-10T04:31:02.291Z,972.50
2023-05-10T04:32:02.190Z,972.51
2023-05-10T04:33:02.237Z,972.53
2023-05-10T04:34:02.174Z,972.50
2023-05-10T04:35:02.174Z,972.50
2023-05-10T04:36:02.156Z,972.55
2023-05-10T04:37:02.119Z,972.57
2023-05-10T04:38:02.124Z,972.55
2023-05-10T04:39:02.087Z,972.61
2023-05-10T04:40:02.109Z,972.60
2023-05-10T04:41:02.072Z,972.59
2023-05-10T04:42:02.066Z,972.59
2023-05-10T04:43:02.063Z,972.60
2023-05-10T04:44:02.048Z,972.59
2023-05-10T04:45:02.032Z,972.63
2023-05-10T04:46:02.072Z,972.60
2023-05-10T04:47:02.003Z,972.69
2023-05-10T04:48:02.049Z,972.62
2023-05-10T04:49:01.977Z,972.64
2023-05-10T04:50:01.981Z,972.69
2023-05-10T04:51:01.945Z,972.77
2023-05-10T04:52:01.928Z,972.63
2023-05-10T04:53:01.938Z,972.75
2023-05-10T04:54:06.411Z,972.76
2023-05-10T04:55:02.887Z,972.75
2023-05-10T04:56:01.877Z,972.76
2023-05-10T04:57:01.876Z,972.79
2023-05-10T04:58:01.861Z,972.84
2023-05-10T04:59:01.855Z,972.79
2023-05-10T05:00:01.829Z,972.91
2023-05-10T05:01:01.809Z,972.84
2023-05-10T05:02:01.896Z,972.83
2023-05-10T05:03:01.879Z,972.88
2023-05-10T05:04:01.824Z,972.87
2023-05-10T05:05:01.760Z,972.89
2023-05-10T05:06:01.769Z,972.86
2023-05-10T05:07:01.737Z,972.93
2023-05-10T05:08:01.742Z,972.90
2023-05-10T05:09:01.709Z,972.91
2023-05-10T05:10:01.702Z,972.97
2023-05-10T05:11:01.682Z,972.99
2023-05-10T05:12:01.670Z,972.96
2023-05-10T05:13:01.716Z,973.01
2023-05-10T05:14:01.647Z,972.99
2023-05-10T05:15:01.622Z,973.06
2023-05-10T05:16:01.648Z,973.03
2023-05-10T05:17:01.615Z,973.05
2023-05-10T05:18:01.633Z,973.08
2023-05-10T05:19:01.589Z,973.08
2023-05-10T05:20:01.565Z,973.14
2023-05-10T05:21:01.569Z,973.12
2023-05-10T05:22:01.548Z,973.06
2023-05-10T05:23:01.530Z,973.06
2023-05-10T05:24:01.515Z,973.10
2023-05-10T05:25:01.490Z,973.10
2023-05-10T05:26:01.497Z,973.11
2023-05-10T05:27:01.484Z,973.05
2023-05-10T05:28:01.466Z,973.12
2023-05-10T05:29:01.448Z,973.12
2023-05-10T05:30:01.447Z,973.16
2023-05-10T05:31:01.431Z,973.14
2023-05-10T05:32:01.533Z,973.09
2023-05-10T05:33:01.425Z,973.17
2023-05-10T05:34:01.386Z,973.18
2023-05-10T05:35:01.362Z,973.15
2023-05-10T05:36:01.368Z,973.12
2023-05-10T05:37:01.345Z,973.14
2023-05-10T05:38:01.330Z,973.15
2023-05-10T05:39:01.360Z,973.17
2023-05-10T05:40:01.314Z,973.16
2023-05-10T05:41:01.300Z,973.14
2023-05-10T05:42:01.307Z,973.16
2023-05-10T05:43:01.262Z,973.22
2023-05-10T05:44:01.247Z,973.19
2023-05-10T05:45:01.249Z,973.17
2023-05-10T05:46:01.261Z,973.21
2023-05-10T05:47:01.238Z,973.18
2023-05-10T05:48:01.215Z,973.20
2023-05-10T05:49:01.180Z,973.19
2023-05-10T05:50:01.177Z,973.26
2023-05-10T05:51:01.157Z,973.27
2023-05-10T05:52:01.149Z,973.27
2023-05-10T05:53:01.130Z,973.27
2023-05-10T05:54:01.126Z,973.26
2023-05-10T05:55:01.110Z,973.29
2023-05-10T05:56:01.092Z,973.31
2023-05-10T05:57:01.543Z,973.34
2023-05-10T05:58:01.066Z,973.33
2023-05-10T05:59:01.053Z,973.32
2023-05-10T06:00:01.112Z,973.37
2023-05-10T06:01:01.038Z,973.38
2023-05-10T06:02:01.041Z,973.37
2023-05-10T06:03:01.128Z,973.41
2023-05-10T06:04:01.345Z,973.42
2023-05-10T06:05:00.970Z,973.40
2023-05-10T06:06:00.959Z,973.38
2023-05-10T06:07:00.955Z,973.40
2023-05-10T06:08:00.946Z,973.40
2023-05-10T06:09:00.937Z,973.45
2023-05-10T06:10:00.909Z,973.45
2023-05-10T06:11:00.887Z,973.43
2023-05-10T06:12:00.881Z,973.47
2023-05-10T06:13:00.920Z,973.52
2023-05-10T06:14:00.870Z,973.50
2023-05-10T06:15:00.870Z,973.53
2023-05-10T06:16:00.820Z,973.54
2023-05-10T06:17:00.933Z,973.54
2023-05-10T06:18:00.858Z,973.52
2023-05-10T06:19:00.784Z,973.46
2023-05-10T06:20:00.777Z,973.54
2023-05-10T06:21:00.765Z,973.57
2023-05-10T06:22:00.758Z,973.55
2023-05-10T06:23:00.753Z,973.56
2023-05-10T06:24:00.740Z,973.54
2023-05-10T06:25:00.732Z,973.57
2023-05-10T06:26:00.701Z,973.66
2023-05-10T06:27:00.693Z,973.61
2023-05-10T06:28:00.690Z,973.73
2023-05-10T06:29:00.657Z,973.71
2023-05-10T06:30:11.697Z,973.72
2023-05-10T06:31:01.673Z,973.76
2023-05-10T06:32:00.628Z,973.70
2023-05-10T06:33:00.692Z,973.74
2023-05-10T06:34:00.605Z,973.68
2023-05-10T06:35:00.681Z,973.68
2023-05-10T06:36:00.576Z,973.61
2023-05-10T06:37:00.571Z,973.66
2023-05-10T06:38:00.538Z,973.63
2023-05-10T06:39:00.544Z,973.66
2023-05-10T06:40:00.533Z,973.69
2023-05-10T06:41:00.509Z,973.73
2023-05-10T06:42:00.493Z,973.75
2023-05-10T06:43:00.491Z,973.75
2023-05-10T06:44:00.467Z,973.74
2023-05-10T06:45:00.450Z,973.77
2023-05-10T06:46:00.536Z,973.73
2023-05-10T06:47:00.430Z,973.74
2023-05-10T06:48:00.440Z,973.77
2023-05-10T06:49:00.398Z,973.84
2023-05-10T06:50:00.389Z,973.77
2023-05-10T06:51:00.401Z,973.76
2023-05-10T06:52:00.374Z,973.71
2023-05-10T06:53:00.352Z,973.75
2023-05-10T06:54:00.334Z,973.74
2023-05-10T06:55:00.343Z,973.70
2023-05-10T06:56:00.321Z,973.74
2023-05-10T06:57:01.779Z,973.73
2023-05-10T06:58:00.276Z,973.74
2023-05-10T06:59:00.414Z,973.74
2023-05-10T07:00:00.358Z,973.77
2023-05-10T07:01:00.368Z,973.75
2023-05-10T07:02:00.337Z,973.82
2023-05-10T07:03:00.283Z,973.81
2023-05-10T07:04:00.223Z,973.75
2023-05-10T07:05:02.841Z,973.78
2023-05-10T07:06:00.183Z,973.85
2023-05-10T07:07:00.181Z,973.84
2023-05-10T07:08:00.159Z,973.85
2023-05-10T07:09:00.170Z,973.87
2023-05-10T07:10:00.229Z,973.82
2023-05-10T07:11:00.152Z,973.83
2023-05-10T07:12:00.118Z,973.79
2023-05-10T07:13:00.198Z,973.87
2023-05-10T07:14:00.113Z,973.89
2023-05-10T07:15:00.063Z,973.87
2023-05-10T07:16:00.088Z,973.86
2023-05-10T07:17:00.053Z,973.87
2023-05-10T07:18:00.218Z,973.87
2023-05-10T07:19:00.019Z,973.90
2023-05-10T07:20:00.006Z,973.93
2023-05-10T07:21:00.024Z,973.94
2023-05-10T07:21:59.977Z,973.86
2023-05-10T07:22:59.962Z,973.94
2023-05-10T07:23:59.977Z,973.88
2023-05-10T07:24:59.937Z,973.92
2023-05-10T07:25:59.917Z,973.89
2023-05-10T07:26:59.946Z,973.94
2023-05-10T07:27:59.900Z,973.93
2023-05-10T07:28:59.890Z,973.93
2023-05-10T07:29:59.877Z,973.97
2023-05-10T07:30:59.944Z,973.97
2023-05-10T07:31:59.852Z,973.98
2023-05-10T07:32:59.867Z,974.04
2023-05-10T07:33:59.816Z,973.99
2023-05-10T07:34:59.805Z,973.99
2023-05-10T07:35:59.789Z,973.97
2023-05-10T07:36:59.787Z,974.02
2023-05-10T07:37:59.778Z,974.01
2023-05-10T07:38:59.770Z,974.00
2023-05-10T07:39:59.724Z,974.03
2023-05-10T07:40:59.726Z,974.05
2023-05-10T07:41:59.700Z,973.98
2023-05-10T07:42:59.712Z,974.01
2023-05-10T07:43:59.685Z,974.05
2023-05-10T07:44:59.669Z,974.05
2023-05-10T07:45:59.698Z,974.07
2023-05-10T07:46:59.662Z,974.09
2023-05-10T07:47:59.658Z,974.09
2023-05-10T07:48:59.623Z,974.12
2023-05-10T07:49:59.621Z,974.07
2023-05-10T07:50:59.602Z,974.10
2023-05-10T07:51:59.585Z,974.05
2023-05-10T07:52:59.577Z,974.06
2023-05-10T07:53:59.558Z,974.07
2023-05-10T07:54:59.531Z,974.17
2023-05-10T07:55:59.508Z,974.14
2023-05-10T07:56:59.518Z,974.16
2023-05-10T07:57:59.493Z,974.14
2023-05-10T07:58:59.479Z,974.20
2023-05-10T07:59:59.464Z,974.15
2023-05-10T08:00:59.457Z,974.17
2023-05-10T08:01:59.506Z,974.16
2023-05-10T08:02:59.618Z,974.11
2023-05-10T08:03:59.466Z,974.15
2023-05-10T08:04:59.420Z,974.18
2023-05-10T08:05:59.417Z,974.20
2023-05-10T08:06:59.390Z,974.16
2023-05-10T08:07:59.344Z,974.21
2023-05-10T08:08:59.355Z,974.17
2023-05-10T08:09:59.318Z,974.22
2023-05-10T08:10:59.354Z,974.25
2023-05-10T08:11:59.307Z,974.16
2023-05-10T08:12:59.317Z,974.25
2023-05-10T08:13:59.282Z,974.23
2023-05-10T08:14:59.276Z,974.24
2023-05-10T08:15:59.305Z,974.24
2023-05-10T08:16:59.272Z,974.23
2023-05-10T08:17:59.267Z,974.26
2023-05-10T08:18:59.235Z,974.19
2023-05-10T08:19:59.200Z,974.21
2023-05-10T08:20:59.197Z,974.21
2023-05-10T08:21:59.169Z,974.27
2023-05-10T08:22:59.176Z,974.22
2023-05-10T08:23:59.150Z,974.26
2023-05-10T08:24:59.148Z,974.27
2023-05-10T08:25:59.119Z,974.24
2023-05-10T08:26:59.121Z,974.25
2023-05-10T08:27:59.090Z,974.25
2023-05-10T08:28:59.099Z,974.28
2023-05-10T08:29:59.073Z,974.27
2023-05-10T08:30:59.135Z,974.23
2023-05-10T08:31:59.027Z,974.35
2023-05-10T08:32:59.097Z,974.27
2023-05-10T08:33:59.016Z,974.35
2023-05-10T08:34:59.018Z,974.33
2023-05-10T08:35:58.983Z,974.29
2023-05-10T08:36:58.974Z,974.29
2023-05-10T08:37:58.986Z,974.29
2023-05-10T08:38:58.961Z,974.38
2023-05-10T08:39:58.976Z,974.38
2023-05-10T08:40:58.928Z,974.38
2023-05-10T08:41:58.902Z,974.31
2023-05-10T08:42:58.890Z,974.34
2023-05-10T08:43:58.889Z,974.31
2023-05-10T08:44:58.850Z,974.32
2023-05-10T08:45:58.892Z,974.33
2023-05-10T08:46:58.890Z,974.30
2023-05-10T08:47:58.868Z,974.34
2023-05-10T08:48:58.833Z,974.36
2023-05-10T08:49:58.841Z,974.37
2023-05-10T08:50:58.789Z,974.33
2023-05-10T08:51:58.781Z,974.30
2023-05-10T08:52:58.771Z,974.32
2023-05-10T08:53:58.744Z,974.31
2023-05-10T08:54:58.771Z,974.32
2023-05-10T08:55:58.718Z,974.35
2023-05-10T08:56:58.718Z,974.32
2023-05-10T08:57:58.696Z,974.35
2023-05-10T08:58:58.678Z,974.35
2023-05-10T08:59:58.657Z,974.35
2023-05-10T09:00:58.668Z,974.36
2023-05-10T09:01:58.642Z,974.29
2023-05-10T09:02:58.653Z,974.36
2023-05-10T09:03:58.702Z,974.32
2023-05-10T09:04:58.718Z,974.35
2023-05-10T09:05:58.575Z,974.33
2023-05-10T09:06:58.609Z,974.30
2023-05-10T09:07:58.565Z,974.29
2023-05-10T09:08:58.541Z,974.33
2023-05-10T09:09:58.523Z,974.32
2023-05-10T09:10:58.512Z,974.30
2023-05-10T09:11:58.528Z,974.33
2023-05-10T09:12:59.298Z,974.34
2023-05-10T09:13:58.463Z,974.32
2023-05-10T09:14:58.477Z,974.32
2023-05-10T09:16:02.126Z,974.33
2023-05-10T09:16:59.477Z,974.37
2023-05-10T09:17:58.462Z,974.42
2023-05-10T09:18:58.450Z,974.38
2023-05-10T09:19:58.413Z,974.42
2023-05-10T09:20:58.401Z,974.54
2023-05-10T09:21:58.373Z,974.56
2023-05-10T09:22:58.369Z,974.62
2023-05-10T09:23:58.360Z,974.64
2023-05-10T09:24:58.351Z,974.67
2023-05-10T09:25:58.323Z,974.72
2023-05-10T09:26:58.318Z,974.65
2023-05-10T09:27:58.295Z,974.74
2023-05-10T09:28:58.289Z,974.77
2023-05-10T09:29:58.276Z,974.80
2023-05-10T09:30:58.308Z,974.77
2023-05-10T09:31:58.251Z,974.71
2023-05-10T09:32:58.319Z,974.74
2023-05-10T09:33:58.215Z,974.76
2023-05-10T09:34:58.220Z,974.79
2023-05-10T09:35:58.175Z,974.74
2023-05-10T09:36:58.183Z,974.77
2023-05-10T09:37:58.191Z,974.71
2023-05-10T09:38:58.167Z,974.73
2023-05-10T09:39:58.150Z,974.73
2023-05-10T09:40:58.126Z,974.75
2023-05-10T09:41:58.096Z,974.78
2023-05-10T09:42:58.096Z,974.79
2023-05-10T09:43:58.080Z,974.76
2023-05-10T09:44:58.081Z,974.77
2023-05-10T09:45:58.092Z,974.74
2023-05-10T09:46:58.095Z,974.74
2023-05-10T10:03:20.688Z,974.66
2023-05-10T10:04:20.675Z,974.68
2023-05-10T10:05:20.655Z,974.68
2023-05-10T10:06:29.491Z,974.63
2023-05-10T10:07:21.626Z,974.65
2023-05-10T10:08:20.628Z,974.62
2023-05-10T10:09:20.604Z,974.62
2023-05-10T10:10:20.572Z,974.61
2023-05-10T10:11:20.590Z,974.60
2023-05-10T10:12:20.575Z,974.57
2023-05-10T10:13:20.556Z,974.63
2023-05-10T10:14:20.523Z,974.54
2023-05-10T10:15:20.794Z,974.53
2023-05-10T10:16:20.529Z,974.52
2023-05-10T10:17:20.530Z,974.51
2023-05-10T10:18:20.507Z,974.50
2023-05-10T10:19:20.470Z,974.50
2023-05-10T10:20:20.758Z,974.52
2023-05-10T10:21:20.468Z,974.50
2023-05-10T10:22:20.436Z,974.49
2023-05-10T10:23:20.424Z,974.45
2023-05-10T10:24:20.420Z,974.42
2023-05-10T10:25:20.454Z,974.44
2023-05-10T10:26:20.407Z,974.46
2023-05-10T10:27:20.377Z,974.42
2023-05-10T10:28:20.364Z,974.40
2023-05-10T10:29:20.419Z,974.49
2023-05-10T10:30:20.354Z,974.47
2023-05-10T10:31:20.409Z,974.44
2023-05-10T10:32:20.379Z,974.44
2023-05-10T10:33:28.371Z,974.41
2023-05-10T10:34:21.281Z,974.37
2023-05-10T10:35:20.265Z,974.44
2023-05-10T10:36:20.286Z,974.34
2023-05-10T10:37:20.249Z,974.43
2023-05-10T10:38:20.215Z,974.30
2023-05-10T10:39:20.209Z,974.33
2023-05-10T10:40:20.202Z,974.29
2023-05-10T10:41:20.199Z,974.27
2023-05-10T10:42:20.180Z,974.19
2023-05-10T10:43:20.164Z,974.31
2023-05-10T10:44:20.147Z,974.24
2023-05-10T10:45:20.153Z,974.27
2023-05-10T10:46:20.169Z,974.29
2023-05-10T10:47:20.111Z,974.30
2023-05-10T10:48:20.104Z,974.27
2023-05-10T10:49:20.087Z,974.28
2023-05-10T10:50:20.079Z,974.24
2023-05-10T10:51:20.048Z,974.29
2023-05-10T10:52:20.044Z,974.26
2023-05-10T10:53:20.103Z,974.27
2023-05-10T10:54:20.004Z,974.27
2023-05-10T10:55:20.242Z,974.22
2023-05-10T10:56:19.992Z,974.28
2023-05-10T10:57:19.975Z,974.33
2023-05-10T10:58:19.971Z,974.34
2023-05-10T10:59:19.962Z,974.29
2023-05-10T11:00:19.954Z,974.24
2023-05-10T11:01:19.960Z,974.32
2023-05-10T11:02:19.924Z,974.33
2023-05-10T11:03:19.935Z,974.34
2023-05-10T11:04:20.002Z,974.30
2023-05-10T11:05:19.881Z,974.39
2023-05-10T11:06:19.871Z,974.36
2023-05-10T11:07:19.877Z,974.33
2023-05-10T11:08:19.832Z,974.37
2023-05-10T11:09:19.825Z,974.33
2023-05-10T11:10:19.797Z,974.37
2023-05-10T11:11:19.903Z,974.38
2023-05-10T11:12:19.951Z,974.37
2023-05-10T11:13:19.785Z,974.37
2023-05-10T11:14:19.786Z,974.35
2023-05-10T11:15:19.741Z,974.36
2023-05-10T11:16:19.800Z,974.39
2023-05-10T11:17:19.707Z,974.42
2023-05-10T11:18:19.739Z,974.37
2023-05-10T11:19:19.697Z,974.41
2023-05-10T11:20:19.867Z,974.36
2023-05-10T11:21:19.669Z,974.40
2023-05-10T11:22:19.660Z,974.35
2023-05-10T11:23:19.657Z,974.41
2023-05-10T11:24:19.634Z,974.50
2023-05-10T11:25:19.619Z,974.37
2023-05-10T11:26:19.615Z,974.43
2023-05-10T11:27:19.596Z,974.42
2023-05-10T11:28:19.585Z,974.46
2023-05-10T11:29:19.561Z,974.40
2023-05-10T11:30:19.769Z,974.47
2023-05-10T11:31:19.590Z,974.48
2023-05-10T11:32:19.529Z,974.42
2023-05-10T11:33:19.514Z,974.48
2023-05-10T11:34:19.496Z,974.51
2023-05-10T11:35:19.479Z,974.48
2023-05-10T11:36:19.479Z,974.51
2023-05-10T11:37:19.456Z,974.42
2023-05-10T11:38:19.476Z,974.47
2023-05-10T11:39:19.449Z,974.48
2023-05-10T11:40:19.573Z,974.50
2023-05-10T11:41:19.393Z,974.43
2023-05-10T11:42:19.408Z,974.44
2023-05-10T11:43:19.391Z,974.51
2023-05-10T11:44:19.360Z,974.42
2023-05-10T11:45:19.354Z,974.47
2023-05-10T11:46:19.719Z,974.51
2023-05-10T11:47:19.338Z,974.51
2023-05-10T11:48:19.327Z,974.49
2023-05-10T11:49:19.305Z,974.47
2023-05-10T11:50:19.509Z,974.50
2023-05-10T11:51:19.346Z,974.53
2023-05-10T11:52:19.281Z,974.52
2023-05-10T11:53:19.252Z,974.52
2023-05-10T11:54:19.239Z,974.54
2023-05-10T11:55:19.221Z,974.50
2023-05-10T11:56:19.229Z,974.47
2023-05-10T11:57:19.204Z,974.47
2023-05-10T11:58:19.187Z,974.48
2023-05-10T11:59:19.280Z,974.51
2023-05-10T12:00:19.394Z,974.49
2023-05-10T12:01:19.156Z,974.46
2023-05-10T12:02:19.140Z,974.48
2023-05-10T12:03:19.305Z,974.43
2023-05-10T12:04:19.342Z,974.48
2023-05-10T12:05:19.111Z,974.48
2023-05-10T12:06:19.088Z,974.52
2023-05-10T12:07:19.076Z,974.46
2023-05-10T12:08:19.072Z,974.48
2023-05-10T12:09:22.997Z,974.52
2023-05-10T12:10:20.312Z,974.44
2023-05-10T12:11:19.098Z,974.54
2023-05-10T12:12:19.029Z,974.50
2023-05-10T12:13:18.988Z,974.47
2023-05-10T12:14:18.968Z,974.48
2023-05-10T12:15:18.976Z,974.48
2023-05-10T12:16:19.075Z,974.44
2023-05-10T12:17:18.940Z,974.49
2023-05-10T12:18:18.929Z,974.44
2023-05-10T12:19:18.934Z,974.41
2023-05-10T12:20:19.156Z,974.43
2023-05-10T12:21:18.886Z,974.42
2023-05-10T12:22:18.869Z,974.41
2023-05-10T12:23:18.879Z,974.37
2023-05-10T12:24:18.935Z,974.44
2023-05-10T12:25:18.854Z,974.43
2023-05-10T12:26:18.821Z,974.51
2023-05-10T12:27:18.801Z,974.50
2023-05-10T12:28:18.805Z,974.52
2023-05-10T12:29:18.792Z,974.54
2023-05-10T12:30:18.933Z,974.55
2023-05-10T12:31:18.827Z,974.53
2023-05-10T12:32:18.745Z,974.60
2023-05-10T12:33:18.740Z,974.53
2023-05-10T12:34:18.748Z,974.52
2023-05-10T12:35:18.704Z,974.56
2023-05-10T12:36:18.688Z,974.55
2023-05-10T12:37:18.677Z,974.59
2023-05-10T12:38:18.677Z,974.62
2023-05-10T12:39:18.651Z,974.60
2023-05-10T12:40:18.787Z,974.56
2023-05-10T12:41:18.749Z,974.60
2023-05-10T12:42:18.622Z,974.60
2023-05-10T12:43:18.614Z,974.64
2023-05-10T12:44:18.606Z,974.59
2023-05-10T12:45:18.596Z,974.57
2023-05-10T12:46:18.641Z,974.58
2023-05-10T12:47:18.589Z,974.65
2023-05-10T12:48:18.559Z,974.70
2023-05-10T12:49:18.523Z,974.68
2023-05-10T12:50:18.642Z,974.63
2023-05-10T12:51:18.551Z,974.60
2023-05-10T12:52:18.506Z,974.60
2023-05-10T12:53:18.477Z,974.57
2023-05-10T12:54:18.470Z,974.62
2023-05-10T12:55:18.441Z,974.60
2023-05-10T12:56:18.451Z,974.66